LiveATC.Net - Listen to live air traffic control over the Internet!


ICAO: UUEE  IATA: SVO   Airport: Sheremetyevo Airport
City: Moscow
Country: Russia   Continent: Europe
UUEE METAR Weather: UUEE 180430Z 22003MPS 1000 0600SW R24L/P2000D R24C/P2000D R24R/P2000N PRFG OVC001 03/03 Q1028 R24L/150057 R24C/150057 R24R/290051 TEMPO 0300 FG RMK QBB050
UUEE Flight Activity (FlightAware)

UUEE Twr/App/Radar
Feed Status: UP   Listeners: 1
Listen in your browser - HTML5 player (in browser, HTML5)
Click here to listen with your own player (launches your MP3 player)
Archive Access: UUEE Twr/App/Radar
FacilityFrequency
Sheremetyevo Radar118.100
Sheremetyevo Radar/Departure126.600
Sheremetyevo Tower131.500
Sheremetyevo Tower (Rwy 24R/06L)118.700

NOTICE

Unauthorized use prohibited. See LiveATC.net Terms of Service


Airport/ARTCC Code
Frequency Search
(e.g., 124.400, 128.75)
Site-wide search
 


Browse LiveATC Feeds
Top 50 LiveATC Feeds
LiveATC Feed Map
Bad Weather Areas

LiveATC FAQ
Offer LiveATC feed
Contact LiveATC.net
Press Inquiries

LiveATC on iPhone
LiveATC on Android

Windows Phone
Windows 8/10

LiveATC Mobile
(Mobile browser)

ATC Audio Archives
Interesting Recordings

LiveATC Forums


Home Page
About LiveATC.net
Make a Donation
Terms of Use
Privacy Policy

Canadian Air Freqs

AIRMETs/SIGMETs

FAA Airport Status
Nat'l Airspace Status
Arrival Demand Charts


Server Software By:
Icecast.org
Liquidsoap